createdAt,value
2022-12-31T00:00:09.355Z,4.36
2022-12-31T00:01:34.428Z,4.34
2022-12-31T00:02:38.740Z,4.35
2022-12-31T00:03:41.859Z,4.37
2022-12-31T00:04:44.433Z,4.34
2022-12-31T00:05:46.914Z,4.42
2022-12-31T00:06:49.564Z,4.37
2022-12-31T00:07:52.230Z,4.38
2022-12-31T00:08:57.216Z,4.38
2022-12-31T00:09:59.575Z,4.36
2022-12-31T00:11:02.073Z,4.37
2022-12-31T00:12:04.696Z,4.43
2022-12-31T00:13:11.322Z,4.41
2022-12-31T00:14:14.371Z,4.41
2022-12-31T00:15:17.099Z,4.39
2022-12-31T00:16:25.111Z,4.38
2022-12-31T00:17:29.313Z,4.41
2022-12-31T00:18:31.624Z,4.47
2022-12-31T00:19:34.197Z,4.54
2022-12-31T00:20:41.156Z,4.53
2022-12-31T00:21:43.847Z,4.45
2022-12-31T00:22:46.260Z,4.48
2022-12-31T00:23:49.374Z,4.50
2022-12-31T00:24:51.905Z,4.49
2022-12-31T00:25:54.264Z,4.51
2022-12-31T00:26:57.404Z,4.46
2022-12-31T00:27:59.843Z,4.52
2022-12-31T00:29:02.717Z,4.49
2022-12-31T00:30:05.463Z,4.48
2022-12-31T00:31:11.419Z,4.49
2022-12-31T00:32:14.325Z,4.47
2022-12-31T00:33:16.797Z,4.48
2022-12-31T00:34:19.173Z,4.46
2022-12-31T00:35:21.667Z,4.44
2022-12-31T00:36:26.337Z,4.48
2022-12-31T00:37:28.937Z,4.50
2022-12-31T00:38:33.163Z,4.49
2022-12-31T00:39:35.648Z,4.55
2022-12-31T00:40:38.083Z,4.54
2022-12-31T00:41:40.646Z,4.50
2022-12-31T00:42:43.075Z,4.52
2022-12-31T00:43:46.610Z,4.51
2022-12-31T00:44:49.024Z,4.50
2022-12-31T00:45:51.580Z,4.53
2022-12-31T00:46:54.211Z,4.56
2022-12-31T00:47:56.636Z,4.59
2022-12-31T00:48:59.121Z,4.58
2022-12-31T00:50:01.674Z,4.54
2022-12-31T00:51:06.536Z,4.52
2022-12-31T00:52:09.116Z,4.54
2022-12-31T00:53:11.658Z,4.53
2022-12-31T00:54:17.428Z,4.52
2022-12-31T00:55:19.941Z,4.52
2022-12-31T00:56:27.312Z,4.62
2022-12-31T00:57:29.847Z,4.66
2022-12-31T00:58:33.489Z,4.65
2022-12-31T00:59:36.047Z,4.65
2022-12-31T01:00:38.963Z,4.62
2022-12-31T01:01:43.232Z,4.58
2022-12-31T01:02:46.166Z,4.65
2022-12-31T01:03:51.408Z,4.62
2022-12-31T01:04:54.110Z,4.64
2022-12-31T01:05:59.565Z,4.67
2022-12-31T01:07:03.079Z,4.61
2022-12-31T01:08:06.507Z,4.68
2022-12-31T01:09:10.456Z,4.69
2022-12-31T01:10:12.949Z,4.66
2022-12-31T01:11:19.261Z,4.60
2022-12-31T01:12:22.230Z,4.61
2022-12-31T01:13:24.644Z,4.60
2022-12-31T01:14:27.345Z,4.56
2022-12-31T01:15:35.136Z,4.60
2022-12-31T01:16:41.891Z,4.57
2022-12-31T01:17:46.395Z,4.67
2022-12-31T01:18:50.048Z,4.62
2022-12-31T01:19:52.596Z,4.70
2022-12-31T01:20:55.172Z,4.73
2022-12-31T01:21:58.421Z,4.66
2022-12-31T01:23:00.945Z,4.66
2022-12-31T01:24:03.872Z,4.69
2022-12-31T01:25:06.942Z,4.75
2022-12-31T01:26:11.577Z,4.66
2022-12-31T01:27:14.081Z,4.67
2022-12-31T01:28:16.732Z,4.71
2022-12-31T01:29:19.444Z,4.63
2022-12-31T01:30:24.479Z,4.70
2022-12-31T01:31:27.681Z,4.70
2022-12-31T01:32:30.088Z,4.64
2022-12-31T01:33:32.892Z,4.66
2022-12-31T01:34:35.430Z,4.70
2022-12-31T01:35:38.349Z,4.74
2022-12-31T01:36:40.764Z,4.69
2022-12-31T01:37:43.306Z,4.73
2022-12-31T01:38:45.744Z,4.70
2022-12-31T01:39:48.373Z,4.73
2022-12-31T01:40:50.964Z,4.73
2022-12-31T01:41:53.466Z,4.80
2022-12-31T01:42:57.137Z,4.76
2022-12-31T01:44:02.328Z,4.75
2022-12-31T01:45:11.155Z,4.73
2022-12-31T01:46:21.092Z,4.69
2022-12-31T01:47:38.214Z,4.80
2022-12-31T01:48:40.662Z,4.80
2022-12-31T01:49:47.621Z,4.78
2022-12-31T01:50:50.811Z,4.78
2022-12-31T01:52:11.488Z,4.79
2022-12-31T01:53:15.627Z,4.73
2022-12-31T01:54:20.625Z,4.75
2022-12-31T01:55:37.008Z,4.76
2022-12-31T01:56:40.905Z,4.71
2022-12-31T01:57:45.785Z,4.66
2022-12-31T01:58:51.213Z,4.68
2022-12-31T01:59:55.809Z,4.66
2022-12-31T02:00:59.589Z,4.71
2022-12-31T02:02:02.829Z,4.63
2022-12-31T02:03:08.475Z,4.71
2022-12-31T02:04:15.102Z,4.65
2022-12-31T02:05:30.999Z,4.64
2022-12-31T02:06:46.168Z,4.59
2022-12-31T02:07:49.056Z,4.59
2022-12-31T02:08:51.967Z,4.69
2022-12-31T02:09:54.645Z,4.63
2022-12-31T02:10:59.514Z,4.62
2022-12-31T02:12:02.129Z,4.66
2022-12-31T02:13:04.963Z,4.59
2022-12-31T02:14:12.387Z,4.57
2022-12-31T02:15:15.252Z,4.55
2022-12-31T02:16:47.443Z,4.62
2022-12-31T02:18:14.324Z,4.63
2022-12-31T02:19:42.067Z,4.57
2022-12-31T02:20:55.391Z,4.53
2022-12-31T02:22:14.124Z,4.54
2022-12-31T02:23:19.088Z,4.57
2022-12-31T02:24:56.901Z,4.66
2022-12-31T02:26:02.440Z,4.61
2022-12-31T02:27:27.093Z,4.55
2022-12-31T02:29:03.178Z,4.61
2022-12-31T02:30:11.183Z,4.56
2022-12-31T02:31:37.457Z,4.57
2022-12-31T02:32:47.281Z,4.52
2022-12-31T02:34:04.081Z,4.57
2022-12-31T02:35:15.702Z,4.54
2022-12-31T02:36:25.144Z,4.51
2022-12-31T02:37:30.646Z,4.53
2022-12-31T02:38:42.228Z,4.56
2022-12-31T02:39:45.070Z,4.51
2022-12-31T02:40:48.545Z,4.51
2022-12-31T02:41:52.298Z,4.48
2022-12-31T02:42:55.717Z,4.47
2022-12-31T02:43:58.339Z,4.54
2022-12-31T02:45:00.879Z,4.50
2022-12-31T02:46:16.331Z,4.57
2022-12-31T02:47:31.034Z,4.57
2022-12-31T02:48:53.769Z,4.59
2022-12-31T02:49:56.464Z,4.59
2022-12-31T02:51:40.341Z,4.58
2022-12-31T02:53:01.404Z,4.52
2022-12-31T02:54:39.368Z,4.53
2022-12-31T02:56:03.368Z,4.52
2022-12-31T02:57:17.956Z,4.52
2022-12-31T02:58:49.980Z,4.48
2022-12-31T03:00:17.358Z,4.51
2022-12-31T03:01:45.362Z,4.47
2022-12-31T03:02:49.307Z,4.48
2022-12-31T03:04:11.910Z,4.45
2022-12-31T03:05:17.354Z,4.46
2022-12-31T03:06:19.917Z,4.52
2022-12-31T03:07:28.263Z,4.53
2022-12-31T03:08:31.136Z,4.49
2022-12-31T03:09:34.540Z,4.47
2022-12-31T03:10:37.394Z,4.48
2022-12-31T03:11:58.907Z,4.43
2022-12-31T03:13:01.658Z,4.49
2022-12-31T03:14:04.151Z,4.56
2022-12-31T03:15:20.144Z,4.62
2022-12-31T03:16:23.066Z,4.53
2022-12-31T03:17:26.425Z,4.48
2022-12-31T03:18:57.527Z,4.49
2022-12-31T03:20:18.974Z,4.51
2022-12-31T03:21:39.745Z,4.42
2022-12-31T03:22:43.434Z,4.45
2022-12-31T03:23:50.330Z,4.43
2022-12-31T03:25:11.056Z,4.54
2022-12-31T03:26:13.905Z,4.46
2022-12-31T03:27:17.131Z,4.45
2022-12-31T03:28:22.300Z,4.52
2022-12-31T03:29:24.765Z,4.46
2022-12-31T03:30:28.379Z,4.44
2022-12-31T03:31:30.765Z,4.46
2022-12-31T03:32:33.331Z,4.46
2022-12-31T03:33:38.322Z,4.44
2022-12-31T03:34:40.855Z,4.48
2022-12-31T03:35:45.875Z,4.50
2022-12-31T03:36:48.366Z,4.41
2022-12-31T03:37:52.056Z,4.40
2022-12-31T03:38:55.443Z,4.45
2022-12-31T03:39:58.287Z,4.43
2022-12-31T03:41:00.841Z,4.49
2022-12-31T03:42:03.435Z,4.41
2022-12-31T03:43:05.876Z,4.47
2022-12-31T03:44:08.355Z,4.43
2022-12-31T03:45:11.922Z,4.38
2022-12-31T03:46:14.507Z,4.41
2022-12-31T03:47:17.526Z,4.45
2022-12-31T03:48:22.207Z,4.44
2022-12-31T03:49:24.860Z,4.39
2022-12-31T03:50:27.627Z,4.43
2022-12-31T03:51:29.973Z,4.43
2022-12-31T03:52:32.762Z,4.38
2022-12-31T03:53:35.986Z,4.39
2022-12-31T03:54:41.068Z,4.39
2022-12-31T03:55:43.527Z,4.41
2022-12-31T03:56:48.888Z,4.45
2022-12-31T03:57:52.651Z,4.37
2022-12-31T03:58:54.933Z,4.36
2022-12-31T03:59:57.738Z,4.35
2022-12-31T04:01:00.715Z,4.33
2022-12-31T04:02:03.621Z,4.33
2022-12-31T04:03:06.382Z,4.33
2022-12-31T04:04:08.900Z,4.33
2022-12-31T04:05:12.588Z,4.33
2022-12-31T04:06:16.690Z,4.31
2022-12-31T04:07:21.755Z,4.30
2022-12-31T04:08:24.633Z,4.30
2022-12-31T04:09:27.259Z,4.47
2022-12-31T04:10:29.715Z,4.39
2022-12-31T04:11:32.493Z,4.33
2022-12-31T04:12:36.330Z,4.33
2022-12-31T04:13:38.798Z,4.33
2022-12-31T04:14:41.387Z,4.38
2022-12-31T04:15:43.887Z,4.36
2022-12-31T04:16:46.628Z,4.37
2022-12-31T04:17:49.611Z,4.35
2022-12-31T04:18:52.006Z,4.33
2022-12-31T04:19:54.557Z,4.31
2022-12-31T04:21:04.826Z,4.33
2022-12-31T04:22:07.243Z,4.33
2022-12-31T04:23:09.860Z,4.36
2022-12-31T04:24:12.326Z,4.33
2022-12-31T04:25:14.952Z,4.31
2022-12-31T04:26:17.595Z,4.29
2022-12-31T04:27:20.020Z,4.29
2022-12-31T04:28:22.586Z,4.30
2022-12-31T04:29:25.246Z,4.32
2022-12-31T04:30:27.807Z,4.32
2022-12-31T04:31:30.497Z,4.33
2022-12-31T04:32:33.013Z,4.34
2022-12-31T04:33:35.437Z,4.30
2022-12-31T04:34:38.134Z,4.30
2022-12-31T04:35:40.596Z,4.29
2022-12-31T04:36:43.120Z,4.30
2022-12-31T04:37:46.131Z,4.29
2022-12-31T04:38:48.745Z,4.32
2022-12-31T04:39:51.228Z,4.32
2022-12-31T04:41:12.527Z,4.31
2022-12-31T04:42:15.004Z,4.31
2022-12-31T04:43:17.533Z,4.30
2022-12-31T04:44:20.812Z,4.32
2022-12-31T04:45:23.440Z,4.32
2022-12-31T04:46:28.938Z,4.31
2022-12-31T04:47:31.463Z,4.30
2022-12-31T04:48:34.590Z,4.32
2022-12-31T04:49:37.184Z,4.29
2022-12-31T04:50:39.597Z,4.28
2022-12-31T04:51:42.278Z,4.31
2022-12-31T04:52:44.695Z,4.32
2022-12-31T04:53:47.629Z,4.31
2022-12-31T04:54:50.201Z,4.32
2022-12-31T04:55:53.090Z,4.36
2022-12-31T04:56:55.712Z,4.38
2022-12-31T04:57:58.352Z,4.38
2022-12-31T04:59:00.918Z,4.37
2022-12-31T05:00:04.108Z,4.32
2022-12-31T05:01:07.687Z,4.30
2022-12-31T05:02:10.411Z,4.30
2022-12-31T05:03:13.223Z,4.30
2022-12-31T05:04:19.147Z,4.26
2022-12-31T05:05:22.178Z,4.25
2022-12-31T05:06:24.731Z,4.27
2022-12-31T05:07:27.442Z,4.25
2022-12-31T05:08:30.346Z,4.23
2022-12-31T05:09:32.911Z,4.23
2022-12-31T05:10:37.263Z,4.22
2022-12-31T05:11:39.879Z,4.26
2022-12-31T05:12:42.310Z,4.24
2022-12-31T05:13:44.983Z,4.21
2022-12-31T05:14:47.468Z,4.21
2022-12-31T05:15:50.756Z,4.22
2022-12-31T05:16:53.316Z,4.20
2022-12-31T05:17:56.374Z,4.26
2022-12-31T05:18:59.143Z,4.23
2022-12-31T05:20:01.659Z,4.16
2022-12-31T05:21:04.619Z,4.17
2022-12-31T05:22:25.416Z,4.10
2022-12-31T05:23:28.274Z,4.06
2022-12-31T05:24:30.701Z,4.01
2022-12-31T05:25:33.390Z,4.03
2022-12-31T05:26:35.989Z,4.02
2022-12-31T05:27:38.611Z,4.05
2022-12-31T05:28:41.285Z,4.10
2022-12-31T05:29:43.709Z,3.98
2022-12-31T05:30:50.412Z,4.01
2022-12-31T05:31:53.121Z,3.95
2022-12-31T05:32:55.531Z,3.97
2022-12-31T05:33:58.116Z,3.94
2022-12-31T05:35:01.085Z,3.95
2022-12-31T05:36:03.896Z,3.94
2022-12-31T05:37:06.499Z,3.92
2022-12-31T05:38:09.091Z,3.95
2022-12-31T05:39:11.492Z,3.91
2022-12-31T05:40:13.928Z,3.91
2022-12-31T05:41:16.371Z,3.90
2022-12-31T05:42:18.925Z,3.88
2022-12-31T05:43:21.350Z,3.88
2022-12-31T05:44:23.914Z,3.89
2022-12-31T05:45:30.791Z,3.87
2022-12-31T05:46:33.788Z,3.94
2022-12-31T05:47:36.406Z,3.95
2022-12-31T05:48:40.259Z,3.94
2022-12-31T05:49:42.959Z,3.95
2022-12-31T05:50:45.329Z,3.95
2022-12-31T05:51:47.901Z,3.96
2022-12-31T05:52:50.602Z,3.95
2022-12-31T05:53:53.043Z,3.96
2022-12-31T05:54:55.455Z,3.95
2022-12-31T05:55:58.349Z,3.94
2022-12-31T05:57:01.475Z,3.93
2022-12-31T05:58:04.097Z,3.94
2022-12-31T05:59:06.661Z,3.95
2022-12-31T06:00:11.107Z,3.96
2022-12-31T06:01:16.583Z,3.95
2022-12-31T06:02:19.525Z,3.96
2022-12-31T06:03:22.283Z,3.96
2022-12-31T06:04:26.052Z,3.93
2022-12-31T06:05:31.278Z,3.92
2022-12-31T06:06:33.814Z,3.93
2022-12-31T06:07:36.540Z,3.91
2022-12-31T06:08:40.549Z,3.91
2022-12-31T06:09:43.079Z,3.90
2022-12-31T06:10:45.607Z,3.91
2022-12-31T06:11:48.365Z,3.90
2022-12-31T06:12:50.864Z,3.88
2022-12-31T06:13:53.500Z,3.88
2022-12-31T06:14:56.068Z,3.86
2022-12-31T06:15:58.604Z,3.83
2022-12-31T06:17:01.582Z,3.85
2022-12-31T06:18:04.073Z,3.84
2022-12-31T06:19:06.854Z,3.84
2022-12-31T06:20:13.084Z,3.79
2022-12-31T06:21:16.054Z,3.80
2022-12-31T06:22:18.753Z,3.81
2022-12-31T06:23:21.212Z,3.82
2022-12-31T06:24:23.585Z,3.82
2022-12-31T06:25:26.448Z,3.85
2022-12-31T06:26:29.048Z,3.84
2022-12-31T06:27:31.657Z,3.84
2022-12-31T06:28:34.078Z,3.84
2022-12-31T06:29:36.515Z,3.86
2022-12-31T06:30:38.998Z,3.87
2022-12-31T06:31:41.443Z,3.87
2022-12-31T06:32:43.853Z,3.88
2022-12-31T06:33:48.902Z,3.87
2022-12-31T06:34:51.270Z,3.88
2022-12-31T06:36:00.365Z,3.88
2022-12-31T06:37:03.079Z,3.88
2022-12-31T06:38:05.898Z,3.90
2022-12-31T06:39:08.282Z,3.89
2022-12-31T06:40:11.647Z,3.87
2022-12-31T06:41:15.979Z,3.89
2022-12-31T06:42:18.356Z,3.89
2022-12-31T06:43:21.277Z,3.92
2022-12-31T06:44:23.890Z,3.94
2022-12-31T06:45:26.242Z,3.93
2022-12-31T06:46:29.018Z,3.95
2022-12-31T06:47:31.757Z,3.92
2022-12-31T06:48:35.572Z,3.89
2022-12-31T06:49:37.982Z,3.91
2022-12-31T06:50:41.172Z,3.99
2022-12-31T06:51:46.325Z,4.02
2022-12-31T06:52:48.713Z,3.96
2022-12-31T06:53:52.456Z,3.95
2022-12-31T06:54:55.052Z,3.94
2022-12-31T06:55:57.919Z,3.96
2022-12-31T06:57:00.467Z,3.95
2022-12-31T06:58:02.977Z,3.95
2022-12-31T06:59:06.336Z,3.94
2022-12-31T07:00:11.014Z,3.95
2022-12-31T07:01:41.616Z,4.00
2022-12-31T07:03:04.112Z,4.01
2022-12-31T07:04:37.820Z,3.95
2022-12-31T07:05:52.716Z,3.96
2022-12-31T07:06:59.629Z,3.94
2022-12-31T07:08:09.009Z,3.96
2022-12-31T07:09:23.681Z,3.96
2022-12-31T07:11:04.643Z,3.93
2022-12-31T07:12:26.150Z,3.93
2022-12-31T07:13:43.844Z,3.94
2022-12-31T07:15:04.443Z,3.99
2022-12-31T07:16:31.224Z,4.02
2022-12-31T07:17:52.398Z,4.06
2022-12-31T07:19:19.376Z,4.05
2022-12-31T07:20:22.203Z,4.07
2022-12-31T07:21:35.219Z,4.10
2022-12-31T07:22:39.011Z,4.11
2022-12-31T07:23:42.947Z,4.13
2022-12-31T07:24:45.712Z,4.14
2022-12-31T07:25:59.963Z,4.19
2022-12-31T07:27:15.012Z,4.19
2022-12-31T07:28:36.809Z,4.23
2022-12-31T07:29:59.911Z,4.31
2022-12-31T07:31:16.451Z,4.25
2022-12-31T07:32:30.775Z,4.24
2022-12-31T07:33:52.067Z,4.25
2022-12-31T07:35:17.394Z,4.31
2022-12-31T07:36:38.291Z,4.34
2022-12-31T07:37:54.391Z,4.28
2022-12-31T07:39:10.900Z,4.30
2022-12-31T07:40:34.945Z,4.30
2022-12-31T07:41:49.843Z,4.32
2022-12-31T07:43:28.154Z,4.32
2022-12-31T07:44:36.638Z,4.35
2022-12-31T07:46:20.922Z,4.31
2022-12-31T07:47:26.257Z,4.30
2022-12-31T07:48:30.152Z,4.26
2022-12-31T07:49:34.510Z,4.29
2022-12-31T07:50:38.012Z,4.25
2022-12-31T07:51:41.567Z,4.31
2022-12-31T07:52:45.526Z,4.31
2022-12-31T07:53:48.196Z,4.32
2022-12-31T07:54:51.112Z,4.38
2022-12-31T07:56:21.649Z,4.37
2022-12-31T07:58:07.623Z,4.37
2022-12-31T07:59:30.981Z,4.41
2022-12-31T08:00:34.263Z,4.38
2022-12-31T08:01:39.422Z,4.43
2022-12-31T08:03:08.987Z,4.46
2022-12-31T08:04:34.554Z,4.48
2022-12-31T08:05:49.088Z,4.45
2022-12-31T08:07:13.007Z,4.51
2022-12-31T08:08:36.269Z,4.50
2022-12-31T08:09:58.372Z,4.53
2022-12-31T08:11:14.203Z,4.56
2022-12-31T08:12:19.612Z,4.60
2022-12-31T08:13:25.671Z,4.57
2022-12-31T08:14:29.695Z,4.56
2022-12-31T08:15:32.492Z,4.57
2022-12-31T08:16:35.205Z,4.57
2022-12-31T08:17:37.919Z,4.59
2022-12-31T08:18:41.094Z,4.61
2022-12-31T08:19:44.325Z,4.63
2022-12-31T08:21:04.782Z,4.63
2022-12-31T08:22:32.366Z,4.71
2022-12-31T08:23:53.597Z,4.80
2022-12-31T08:25:23.130Z,4.83
2022-12-31T08:26:52.601Z,4.84
2022-12-31T08:28:01.720Z,4.85
2022-12-31T08:29:22.099Z,4.87
2022-12-31T08:30:37.151Z,4.88
2022-12-31T08:32:21.288Z,4.90
2022-12-31T08:33:35.729Z,4.92
2022-12-31T08:34:57.199Z,4.90
2022-12-31T08:36:19.515Z,4.88
2022-12-31T08:37:31.945Z,4.89
2022-12-31T08:39:00.667Z,4.88
2022-12-31T08:40:37.696Z,4.89
2022-12-31T08:41:46.301Z,4.97
2022-12-31T08:43:07.637Z,5.01
2022-12-31T08:44:28.747Z,5.06
2022-12-31T08:45:42.562Z,5.05
2022-12-31T08:47:00.077Z,5.06
2022-12-31T08:48:08.494Z,5.07
2022-12-31T08:49:11.401Z,5.11
2022-12-31T08:50:16.465Z,5.09
2022-12-31T08:51:25.068Z,5.03
2022-12-31T08:52:27.803Z,5.07
2022-12-31T08:53:30.967Z,5.09
2022-12-31T08:54:33.941Z,5.17
2022-12-31T08:55:37.910Z,5.16
2022-12-31T08:57:05.690Z,5.30
2022-12-31T08:58:15.738Z,5.25
2022-12-31T08:59:36.396Z,5.25
2022-12-31T09:00:39.814Z,5.36
2022-12-31T09:02:08.304Z,5.27
2022-12-31T09:03:35.129Z,5.30
2022-12-31T09:04:52.929Z,5.33
2022-12-31T09:06:03.527Z,5.37
2022-12-31T09:07:09.689Z,5.40
2022-12-31T09:08:43.991Z,5.38
2022-12-31T09:09:52.857Z,5.41
2022-12-31T09:11:23.761Z,5.43
2022-12-31T09:12:47.543Z,5.41
2022-12-31T09:14:15.391Z,5.43
2022-12-31T09:15:34.091Z,5.45
2022-12-31T09:16:42.282Z,5.43
2022-12-31T09:17:49.319Z,5.42
2022-12-31T09:18:55.165Z,5.30
2022-12-31T09:20:02.092Z,5.34
2022-12-31T09:21:15.192Z,5.29
2022-12-31T09:22:18.891Z,5.44
2022-12-31T09:23:30.172Z,5.45
2022-12-31T09:24:35.837Z,5.43
2022-12-31T09:25:56.014Z,5.46
2022-12-31T09:27:06.343Z,5.47
2022-12-31T09:28:18.636Z,5.45
2022-12-31T09:29:42.573Z,5.44
2022-12-31T09:30:59.121Z,5.42
2022-12-31T09:32:10.716Z,5.33
2022-12-31T09:33:17.277Z,5.35
2022-12-31T09:34:52.203Z,5.42
2022-12-31T09:35:58.845Z,5.44
2022-12-31T09:37:07.266Z,5.47
2022-12-31T09:38:45.448Z,5.52
2022-12-31T09:39:48.681Z,5.49
2022-12-31T09:41:17.095Z,5.52
2022-12-31T09:42:50.525Z,5.52
2022-12-31T09:44:22.058Z,5.58
2022-12-31T09:45:51.911Z,5.50
2022-12-31T09:47:10.198Z,5.48
2022-12-31T09:48:50.304Z,5.46
2022-12-31T09:50:32.686Z,5.58
2022-12-31T09:52:04.222Z,5.46
2022-12-31T09:53:19.321Z,5.49
2022-12-31T09:54:27.673Z,5.52
2022-12-31T09:55:35.782Z,5.44
2022-12-31T09:56:42.717Z,5.41
2022-12-31T09:58:13.130Z,5.45
2022-12-31T09:59:39.669Z,5.54
2022-12-31T10:00:59.830Z,5.36
2022-12-31T10:02:39.686Z,5.49
2022-12-31T10:04:34.956Z,5.43
2022-12-31T10:06:06.009Z,5.43
2022-12-31T10:07:48.726Z,5.43
2022-12-31T10:09:45.381Z,5.41
2022-12-31T10:10:55.039Z,5.40
2022-12-31T10:12:19.221Z,5.45
2022-12-31T10:13:44.965Z,5.42
2022-12-31T10:15:35.577Z,5.36
2022-12-31T10:17:01.735Z,5.34
2022-12-31T10:18:23.988Z,5.40
2022-12-31T10:19:55.688Z,5.53
2022-12-31T10:21:33.124Z,5.47
2022-12-31T10:23:07.878Z,5.56
2022-12-31T10:24:52.082Z,5.57
2022-12-31T10:26:20.905Z,5.52
2022-12-31T10:27:39.701Z,5.50
2022-12-31T10:29:31.715Z,5.49
2022-12-31T10:32:44.226Z,5.50
2022-12-31T10:34:04.036Z,5.57
2022-12-31T10:35:37.206Z,5.51
2022-12-31T10:37:13.866Z,5.44
2022-12-31T10:38:22.254Z,5.47
2022-12-31T10:39:37.950Z,5.47
2022-12-31T10:41:16.842Z,5.46
2022-12-31T10:42:28.616Z,5.54
2022-12-31T10:44:11.324Z,5.57
2022-12-31T10:45:33.284Z,5.51
2022-12-31T10:47:00.800Z,5.44
2022-12-31T10:48:51.376Z,5.49
2022-12-31T10:50:23.835Z,5.50
2022-12-31T10:51:48.206Z,5.47
2022-12-31T10:53:09.861Z,5.42
2022-12-31T10:54:32.289Z,5.48
2022-12-31T10:55:59.671Z,5.55
2022-12-31T10:57:20.864Z,5.51
2022-12-31T10:59:06.414Z,5.48
2022-12-31T11:00:12.924Z,5.50
2022-12-31T11:01:26.280Z,5.46
2022-12-31T11:02:41.178Z,5.55
2022-12-31T11:04:19.214Z,5.51
2022-12-31T11:05:49.139Z,5.48
2022-12-31T11:06:57.064Z,5.48
2022-12-31T11:08:38.227Z,5.53
2022-12-31T11:10:00.997Z,5.53
2022-12-31T11:11:13.176Z,5.59
2022-12-31T11:12:32.135Z,5.54
2022-12-31T11:13:55.127Z,5.51
2022-12-31T11:15:18.730Z,5.48
2022-12-31T11:16:32.899Z,5.58
2022-12-31T11:17:51.856Z,5.53
2022-12-31T11:19:25.109Z,5.68
2022-12-31T11:20:50.784Z,5.66
2022-12-31T11:22:08.819Z,5.65
2022-12-31T11:23:45.314Z,5.67
2022-12-31T11:25:03.819Z,5.64
2022-12-31T11:26:32.379Z,5.56
2022-12-31T11:27:55.411Z,5.52
2022-12-31T11:29:17.051Z,5.59
2022-12-31T11:30:29.757Z,5.56
2022-12-31T11:31:42.545Z,5.54
2022-12-31T11:32:56.974Z,5.49
2022-12-31T11:34:28.053Z,5.59
2022-12-31T11:36:19.251Z,5.52
2022-12-31T11:37:43.207Z,5.51
2022-12-31T11:38:59.124Z,5.53
2022-12-31T11:40:32.980Z,5.53
2022-12-31T11:41:42.982Z,5.55
2022-12-31T11:43:01.812Z,5.49
2022-12-31T11:44:32.659Z,5.45
2022-12-31T11:46:12.932Z,5.48
2022-12-31T11:48:04.352Z,5.48
2022-12-31T11:49:24.943Z,5.39
2022-12-31T11:50:35.951Z,5.41
2022-12-31T11:52:21.775Z,5.38
2022-12-31T11:53:35.071Z,5.41
2022-12-31T11:55:05.867Z,5.45
2022-12-31T11:56:25.007Z,5.41
2022-12-31T11:57:35.735Z,5.38
2022-12-31T11:58:46.735Z,5.44
2022-12-31T11:59:54.796Z,5.42
2022-12-31T12:01:08.237Z,5.42
2022-12-31T12:02:30.118Z,5.44
2022-12-31T12:03:33.399Z,5.50
2022-12-31T12:04:36.177Z,5.56
2022-12-31T12:05:40.149Z,5.60
2022-12-31T12:06:45.816Z,5.61
2022-12-31T12:07:50.479Z,5.61
2022-12-31T12:09:01.582Z,5.66
2022-12-31T12:10:17.013Z,5.65
2022-12-31T12:11:26.753Z,5.62
2022-12-31T12:12:45.823Z,5.68
2022-12-31T12:13:49.013Z,5.68
2022-12-31T12:14:55.328Z,5.63
2022-12-31T12:16:00.479Z,5.68
2022-12-31T12:17:08.818Z,5.61
2022-12-31T12:18:41.128Z,5.69
2022-12-31T12:19:54.009Z,5.69
2022-12-31T12:21:23.391Z,5.67
2022-12-31T12:22:29.183Z,5.69
2022-12-31T12:23:33.173Z,5.75
2022-12-31T12:24:35.937Z,5.78
2022-12-31T12:25:41.115Z,5.81
2022-12-31T12:26:47.189Z,5.76
2022-12-31T12:27:52.330Z,5.72
2022-12-31T12:28:56.952Z,5.72
2022-12-31T12:30:19.028Z,5.75
2022-12-31T12:31:24.259Z,5.81
2022-12-31T12:32:27.479Z,5.82
2022-12-31T12:33:42.056Z,5.75
2022-12-31T12:34:49.563Z,5.83
2022-12-31T12:35:53.124Z,5.87
2022-12-31T12:36:55.989Z,5.86
2022-12-31T12:38:00.653Z,5.83
2022-12-31T12:39:05.773Z,5.85
2022-12-31T12:40:20.642Z,5.86
2022-12-31T12:41:26.657Z,5.83
2022-12-31T12:42:30.308Z,5.84
2022-12-31T12:43:36.019Z,5.88
2022-12-31T12:44:40.345Z,5.92
2022-12-31T12:45:52.224Z,5.94
2022-12-31T12:46:56.370Z,5.92
2022-12-31T12:48:07.983Z,5.89
2022-12-31T12:49:25.835Z,6.03
2022-12-31T12:50:46.490Z,5.97
2022-12-31T12:52:02.021Z,6.01
2022-12-31T12:53:37.431Z,5.91
2022-12-31T12:55:04.784Z,5.86
2022-12-31T12:56:25.511Z,5.94
2022-12-31T12:57:42.761Z,5.91
2022-12-31T12:59:35.550Z,5.84
2022-12-31T13:01:03.224Z,5.88
2022-12-31T13:02:59.158Z,5.84
2022-12-31T13:04:33.571Z,5.90
2022-12-31T13:05:46.073Z,5.90
2022-12-31T13:07:12.618Z,5.98
2022-12-31T13:08:42.755Z,5.85
2022-12-31T13:09:54.594Z,5.89
2022-12-31T13:11:16.150Z,5.91
2022-12-31T13:12:56.821Z,5.84
2022-12-31T13:14:30.121Z,5.92
2022-12-31T13:16:04.762Z,5.93
2022-12-31T13:17:29.167Z,5.90
2022-12-31T13:18:44.338Z,5.98
2022-12-31T13:20:42.620Z,5.97
2022-12-31T13:22:20.667Z,5.87
2022-12-31T13:23:50.198Z,6.00
2022-12-31T13:25:07.325Z,5.92
2022-12-31T13:26:52.638Z,5.92
2022-12-31T13:28:08.463Z,5.97
2022-12-31T13:29:27.299Z,6.04
2022-12-31T13:30:43.101Z,6.03
2022-12-31T13:31:47.560Z,6.01
2022-12-31T13:33:21.028Z,6.05
2022-12-31T13:35:57.127Z,5.98
2022-12-31T13:37:10.592Z,5.95
2022-12-31T13:38:24.529Z,5.96
2022-12-31T13:39:36.616Z,6.00
2022-12-31T13:41:14.448Z,6.04
2022-12-31T13:42:25.213Z,6.00
2022-12-31T13:43:30.879Z,5.92
2022-12-31T13:44:39.764Z,5.91
2022-12-31T13:45:49.000Z,5.95
2022-12-31T13:46:55.780Z,5.99
2022-12-31T13:48:06.492Z,5.88
2022-12-31T13:49:42.473Z,5.87
2022-12-31T13:50:59.737Z,5.96
2022-12-31T13:52:50.789Z,6.02
2022-12-31T13:54:08.916Z,6.01
2022-12-31T13:55:28.929Z,5.94
2022-12-31T13:56:37.414Z,5.99
2022-12-31T13:57:49.651Z,5.98
2022-12-31T13:59:05.744Z,5.97
2022-12-31T14:01:00.662Z,6.02
2022-12-31T14:02:25.623Z,6.03
2022-12-31T14:03:56.124Z,5.99
2022-12-31T14:05:19.696Z,5.93
2022-12-31T14:07:04.150Z,5.91
2022-12-31T14:08:07.247Z,5.91
2022-12-31T14:09:18.189Z,5.95
2022-12-31T14:10:30.362Z,5.91
2022-12-31T14:11:48.306Z,5.80
2022-12-31T14:13:03.521Z,5.92
2022-12-31T14:14:34.068Z,5.88
2022-12-31T14:15:46.525Z,5.86
2022-12-31T14:17:22.839Z,5.82
2022-12-31T14:18:51.657Z,5.78
2022-12-31T14:20:04.996Z,5.77
2022-12-31T14:21:46.421Z,5.78
2022-12-31T14:23:11.024Z,5.79
2022-12-31T14:24:23.367Z,5.72
2022-12-31T14:25:41.256Z,5.70
2022-12-31T14:26:50.736Z,5.67
2022-12-31T14:28:00.700Z,5.62
2022-12-31T14:29:24.799Z,5.66
2022-12-31T14:30:32.989Z,5.69
2022-12-31T14:31:52.149Z,5.64
2022-12-31T14:33:13.398Z,5.59
2022-12-31T14:34:56.472Z,5.74
2022-12-31T14:36:18.775Z,5.72
2022-12-31T14:38:07.843Z,5.72
2022-12-31T14:39:35.937Z,5.63
2022-12-31T14:40:57.255Z,5.58
2022-12-31T14:42:30.937Z,5.56
2022-12-31T14:43:54.552Z,5.62
2022-12-31T14:45:22.033Z,5.63
2022-12-31T14:46:59.317Z,5.62
2022-12-31T14:48:29.485Z,5.55
2022-12-31T14:49:57.625Z,5.60
2022-12-31T14:51:05.359Z,5.55
2022-12-31T14:52:12.698Z,5.59
2022-12-31T14:53:27.177Z,5.58
2022-12-31T14:54:36.568Z,5.56
2022-12-31T14:55:56.413Z,5.57
2022-12-31T14:57:23.660Z,5.67
2022-12-31T14:58:40.281Z,5.61
2022-12-31T15:00:13.242Z,5.64
2022-12-31T15:01:19.452Z,5.66
2022-12-31T15:02:35.563Z,5.57
2022-12-31T15:03:46.104Z,5.61
2022-12-31T15:04:49.055Z,5.70
2022-12-31T15:06:40.959Z,5.64
2022-12-31T15:08:17.302Z,5.72
2022-12-31T15:09:43.870Z,5.69
2022-12-31T15:11:12.422Z,5.69
2022-12-31T15:12:48.285Z,5.67
2022-12-31T15:13:58.507Z,5.62
2022-12-31T15:15:25.768Z,5.72
2022-12-31T15:16:31.476Z,5.75
2022-12-31T15:18:28.529Z,5.72
2022-12-31T15:20:11.430Z,5.68
2022-12-31T15:21:47.126Z,5.74
2022-12-31T15:22:51.259Z,5.75
2022-12-31T15:23:54.096Z,5.65
2022-12-31T15:24:57.073Z,5.60
2022-12-31T15:26:04.267Z,5.60
2022-12-31T15:27:23.795Z,5.69
2022-12-31T15:28:40.120Z,5.63
2022-12-31T15:30:12.264Z,5.64
2022-12-31T15:31:27.932Z,5.58
2022-12-31T15:32:42.275Z,5.62
2022-12-31T15:33:55.866Z,5.65
2022-12-31T15:35:21.757Z,5.60
2022-12-31T15:36:27.298Z,5.59
2022-12-31T15:37:39.583Z,5.57
2022-12-31T15:38:51.263Z,5.54
2022-12-31T15:40:19.683Z,5.57
2022-12-31T15:41:36.445Z,5.53
2022-12-31T15:43:13.380Z,5.54
2022-12-31T15:44:25.163Z,5.53
2022-12-31T15:45:58.336Z,5.49
2022-12-31T15:47:42.468Z,5.51
2022-12-31T15:48:52.290Z,5.47
2022-12-31T15:51:23.076Z,5.45
2022-12-31T15:52:43.203Z,5.46
2022-12-31T15:53:55.987Z,5.51
2022-12-31T15:55:00.961Z,5.48
2022-12-31T15:56:04.822Z,5.52
2022-12-31T15:57:16.419Z,5.49
2022-12-31T15:58:31.175Z,5.47
2022-12-31T15:59:34.470Z,5.47
2022-12-31T16:00:58.881Z,5.47
2022-12-31T16:02:01.601Z,5.46
2022-12-31T16:03:04.545Z,5.44
2022-12-31T16:04:19.307Z,5.43
2022-12-31T16:05:28.351Z,5.43
2022-12-31T16:06:34.086Z,5.44
2022-12-31T16:07:39.168Z,5.44
2022-12-31T16:08:44.960Z,5.44
2022-12-31T16:09:53.037Z,5.44
2022-12-31T16:10:56.238Z,5.44